createdAt,value
2023-04-12T00:00:00.561Z,100110.66
2023-04-12T00:01:03.419Z,100102.59
2023-04-12T00:02:06.616Z,100096.09
2023-04-12T00:03:10.437Z,100102.06
2023-04-12T00:04:14.704Z,100092.03
2023-04-12T00:05:18.105Z,100092.69
2023-04-12T00:06:25.279Z,100090.84
2023-04-12T00:07:27.909Z,100089.09
2023-04-12T00:08:33.153Z,100089.31
2023-04-12T00:09:36.427Z,100084.88
2023-04-12T00:10:38.072Z,100087.19
2023-04-12T00:11:40.492Z,100077.56
2023-04-12T00:12:42.029Z,100090.56
2023-04-12T00:13:44.437Z,100078.19
2023-04-12T00:14:46.686Z,100079.34
2023-04-12T00:15:50.383Z,100072.31
2023-04-12T00:16:51.940Z,100080.44
2023-04-12T00:17:54.416Z,100073.16
2023-04-12T00:18:57.391Z,100079.41
2023-04-12T00:19:59.902Z,100068.19
2023-04-12T00:21:01.398Z,100064.81
2023-04-12T00:22:05.522Z,100066.59
2023-04-12T00:23:07.123Z,100067.50
2023-04-12T00:24:09.962Z,100064.06
2023-04-12T00:25:11.738Z,100052.22
2023-04-12T00:26:14.943Z,100050.25
2023-04-12T00:27:16.486Z,100053.31
2023-04-12T00:28:20.453Z,100058.38
2023-04-12T00:29:22.248Z,100054.06
2023-04-12T00:30:24.817Z,100054.31
2023-04-12T00:31:26.376Z,100056.59
2023-04-12T00:32:28.945Z,100052.41
2023-04-12T00:33:30.554Z,100055.72
2023-04-12T00:34:33.080Z,100050.25
2023-04-12T00:35:35.003Z,100050.91
2023-04-12T00:36:37.532Z,100043.84
2023-04-12T00:37:40.574Z,100055.13
2023-04-12T00:38:43.266Z,100035.47
2023-04-12T00:39:45.052Z,100038.22
2023-04-12T00:40:47.493Z,100041.16
2023-04-12T00:41:49.102Z,100042.63
2023-04-12T00:42:51.505Z,100044.28
2023-04-12T00:43:53.048Z,100044.72
2023-04-12T00:44:55.506Z,100042.09
2023-04-12T00:45:58.391Z,100039.44
2023-04-12T00:47:01.455Z,100036.44
2023-04-12T00:48:03.665Z,100038.22
2023-04-12T00:49:06.539Z,100032.97
2023-04-12T00:50:09.609Z,100025.09
2023-04-12T00:51:12.069Z,100036.44
2023-04-12T00:52:15.659Z,100027.81
2023-04-12T00:53:19.673Z,100032.84
2023-04-12T00:54:22.187Z,100032.59
2023-04-12T00:55:24.682Z,100030.94
2023-04-12T00:56:28.017Z,100030.72
2023-04-12T00:57:35.325Z,100028.13
2023-04-12T00:58:36.829Z,100026.13
2023-04-12T00:59:39.353Z,100026.00
2023-04-12T01:00:41.233Z,100030.09
2023-04-12T01:01:45.407Z,100022.97
2023-04-12T01:02:50.318Z,100020.16
2023-04-12T01:03:55.220Z,100022.38
2023-04-12T01:04:58.524Z,100030.78
2023-04-12T01:06:10.490Z,100021.69
2023-04-12T01:07:22.535Z,100017.47
2023-04-12T01:08:35.294Z,100023.66
2023-04-12T01:09:53.272Z,100023.66
2023-04-12T01:11:01.911Z,100021.25
2023-04-12T01:12:12.047Z,100021.88
2023-04-12T01:13:26.008Z,100019.22
2023-04-12T01:14:35.512Z,100017.69
2023-04-12T01:15:42.769Z,100009.97
2023-04-12T01:16:51.036Z,100003.75
2023-04-12T01:17:58.846Z,99998.75
2023-04-12T01:19:06.282Z,99999.13
2023-04-12T01:20:16.727Z,99994.44
2023-04-12T01:21:24.305Z,99997.78
2023-04-12T01:22:39.395Z,100002.00
2023-04-12T01:23:58.656Z,99993.47
2023-04-12T01:25:11.734Z,99999.56
2023-04-12T01:26:32.976Z,99983.91
2023-04-12T01:27:43.330Z,99989.84
2023-04-12T01:28:46.992Z,99992.09
2023-04-12T01:29:51.322Z,99982.19
2023-04-12T01:30:55.426Z,99984.38
2023-04-12T01:32:00.116Z,99984.16
2023-04-12T01:33:06.502Z,99975.09
2023-04-12T01:34:10.881Z,99978.00
2023-04-12T01:35:14.651Z,99972.44
2023-04-12T01:36:22.310Z,99974.06
2023-04-12T01:37:24.534Z,99965.31
2023-04-12T01:38:28.318Z,99973.47
2023-04-12T01:39:32.462Z,99971.28
2023-04-12T01:40:35.706Z,99976.78
2023-04-12T01:41:41.061Z,99978.31
2023-04-12T01:42:43.959Z,99980.28
2023-04-12T01:43:47.730Z,99971.78
2023-04-12T01:44:50.295Z,99957.69
2023-04-12T01:45:52.847Z,99970.72
2023-04-12T01:46:54.510Z,99960.47
2023-04-12T01:47:57.388Z,99958.34
2023-04-12T01:48:58.977Z,99954.78
2023-04-12T01:50:15.039Z,99947.50
2023-04-12T01:51:23.519Z,99950.03
2023-04-12T01:52:32.003Z,99948.22
2023-04-12T01:53:41.207Z,99943.25
2023-04-12T01:54:45.721Z,99943.59
2023-04-12T01:55:48.822Z,99942.66
2023-04-12T01:56:58.737Z,99942.19
2023-04-12T01:58:03.226Z,99935.31
2023-04-12T01:59:08.455Z,99948.06
2023-04-12T02:00:11.772Z,99946.88
2023-04-12T02:01:15.393Z,99946.13
2023-04-12T02:02:17.942Z,99957.78
2023-04-12T02:03:22.068Z,99947.59
2023-04-12T02:04:26.367Z,99956.94
2023-04-12T02:05:28.804Z,99942.31
2023-04-12T02:06:31.844Z,99942.47
2023-04-12T02:07:35.287Z,99945.16
2023-04-12T02:08:37.476Z,99937.38
2023-04-12T02:09:40.851Z,99945.28
2023-04-12T02:10:42.399Z,99948.50
2023-04-12T02:11:47.571Z,99932.22
2023-04-12T02:12:49.233Z,99946.44
2023-04-12T02:13:53.048Z,99948.47
2023-04-12T02:14:54.584Z,99941.03
2023-04-12T02:15:59.155Z,99935.34
2023-04-12T02:17:02.404Z,99943.81
2023-04-12T02:18:05.204Z,99934.66
2023-04-12T02:19:08.416Z,99936.03
2023-04-12T02:20:12.014Z,99934.19
2023-04-12T02:21:13.586Z,99924.25
2023-04-12T02:22:17.213Z,99932.00
2023-04-12T02:23:18.672Z,99917.75
2023-04-12T02:24:21.396Z,99916.75
2023-04-12T02:25:23.025Z,99913.94
2023-04-12T02:26:25.741Z,99911.41
2023-04-12T02:27:27.292Z,99906.88
2023-04-12T02:28:30.310Z,99907.22
2023-04-12T02:29:33.690Z,99910.19
2023-04-12T02:30:36.196Z,99910.50
2023-04-12T02:31:39.216Z,99900.19
2023-04-12T02:32:45.257Z,99913.00
2023-04-12T02:33:46.960Z,99907.75
2023-04-12T02:34:51.394Z,99901.84
2023-04-12T02:35:53.018Z,99903.81
2023-04-12T02:36:55.479Z,99903.88
2023-04-12T02:37:57.842Z,99894.41
2023-04-12T02:39:00.278Z,99901.69
2023-04-12T02:40:02.468Z,99899.22
2023-04-12T02:41:05.549Z,99899.72
2023-04-12T02:42:07.158Z,99897.59
2023-04-12T02:43:09.868Z,99893.22
2023-04-12T02:44:11.519Z,99885.38
2023-04-12T02:45:15.407Z,99881.25
2023-04-12T02:46:25.274Z,99876.50
2023-04-12T02:47:29.191Z,99879.38
2023-04-12T02:48:31.035Z,99874.47
2023-04-12T02:49:33.560Z,99871.66
2023-04-12T02:50:37.382Z,99872.19
2023-04-12T02:51:39.828Z,99868.00
2023-04-12T02:52:41.317Z,99862.69
2023-04-12T02:53:44.215Z,99864.66
2023-04-12T02:54:45.768Z,99858.75
2023-04-12T02:55:48.257Z,99859.75
2023-04-12T02:56:49.772Z,99856.00
2023-04-12T02:57:53.621Z,99854.22
2023-04-12T02:58:55.268Z,99862.22
2023-04-12T02:59:57.792Z,99857.66
2023-04-12T03:01:01.066Z,99855.75
2023-04-12T03:02:03.736Z,99851.75
2023-04-12T03:03:05.417Z,99855.16
2023-04-12T03:04:08.175Z,99854.47
2023-04-12T03:05:10.362Z,99854.63
2023-04-12T03:06:12.940Z,99854.78
2023-04-12T03:07:14.413Z,99859.41
2023-04-12T03:08:16.905Z,99854.09
2023-04-12T03:09:18.480Z,99849.31
2023-04-12T03:10:20.981Z,99845.63
2023-04-12T03:11:22.537Z,99844.13
2023-04-12T03:12:24.954Z,99848.03
2023-04-12T03:13:26.488Z,99844.41
2023-04-12T03:14:28.941Z,99830.47
2023-04-12T03:15:30.551Z,99832.47
2023-04-12T03:16:35.564Z,99833.06
2023-04-12T03:17:37.097Z,99833.41
2023-04-12T03:18:39.598Z,99840.91
2023-04-12T03:19:41.172Z,99831.72
2023-04-12T03:20:45.982Z,99832.47
2023-04-12T03:21:48.910Z,99841.88
2023-04-12T03:22:51.758Z,99842.13
2023-04-12T03:23:53.262Z,99843.13
2023-04-12T03:24:55.759Z,99839.31
2023-04-12T03:25:57.279Z,99835.16
2023-04-12T03:26:59.744Z,99826.44
2023-04-12T03:28:01.219Z,99821.91
2023-04-12T03:29:05.966Z,99824.28
2023-04-12T03:30:08.851Z,99826.84
2023-04-12T03:31:12.564Z,99822.97
2023-04-12T03:32:15.474Z,99828.31
2023-04-12T03:33:17.950Z,99828.63
2023-04-12T03:34:19.540Z,99814.00
2023-04-12T03:35:22.062Z,99817.13
2023-04-12T03:36:24.760Z,99805.25
2023-04-12T03:37:26.547Z,99806.88
2023-04-12T03:38:29.026Z,99781.75
2023-04-12T03:39:30.511Z,99811.56
2023-04-12T03:40:32.973Z,99809.53
2023-04-12T03:41:34.508Z,99806.16
2023-04-12T03:42:37.487Z,99805.53
2023-04-12T03:43:39.046Z,99804.06
2023-04-12T03:44:41.747Z,99810.09
2023-04-12T03:45:43.345Z,99806.94
2023-04-12T03:46:46.053Z,99802.38
2023-04-12T03:47:49.471Z,99798.47
2023-04-12T03:48:52.349Z,99799.53
2023-04-12T03:50:10.212Z,99794.38
2023-04-12T03:51:13.890Z,99784.91
2023-04-12T03:52:15.752Z,99789.16
2023-04-12T03:53:18.248Z,99785.34
2023-04-12T03:54:19.821Z,99781.63
2023-04-12T03:55:22.461Z,99776.78
2023-04-12T03:56:24.023Z,99769.38
2023-04-12T03:57:27.024Z,99772.75
2023-04-12T03:58:28.548Z,99769.81
2023-04-12T03:59:32.749Z,99776.69
2023-04-12T04:00:34.820Z,99777.72
2023-04-12T04:01:39.032Z,99783.09
2023-04-12T04:02:40.703Z,99781.50
2023-04-12T04:03:45.962Z,99779.97
2023-04-12T04:04:48.148Z,99781.41
2023-04-12T04:05:50.804Z,99788.75
2023-04-12T04:06:52.555Z,99782.69
2023-04-12T04:07:55.038Z,99777.19
2023-04-12T04:08:57.109Z,99781.38
2023-04-12T04:09:59.789Z,99782.63
2023-04-12T04:11:01.301Z,99779.44
2023-04-12T04:12:03.811Z,99784.19
2023-04-12T04:13:05.363Z,99778.06
2023-04-12T04:14:08.386Z,99777.50
2023-04-12T04:15:11.247Z,99769.72
2023-04-12T04:16:14.018Z,99770.72
2023-04-12T04:17:15.578Z,99775.44
2023-04-12T04:18:18.070Z,99767.81
2023-04-12T04:19:21.234Z,99770.72
2023-04-12T04:20:24.238Z,99767.47
2023-04-12T04:21:26.735Z,99755.94
2023-04-12T04:22:29.475Z,99758.34
2023-04-12T04:23:38.891Z,99754.16
2023-04-12T04:24:41.698Z,99761.06
2023-04-12T04:25:43.390Z,99756.53
2023-04-12T04:26:46.004Z,99765.59
2023-04-12T04:27:49.622Z,99755.38
2023-04-12T04:28:52.196Z,99747.34
2023-04-12T04:29:53.724Z,99755.50
2023-04-12T04:30:57.761Z,99755.03
2023-04-12T04:31:59.288Z,99751.16
2023-04-12T04:33:01.827Z,99757.44
2023-04-12T04:34:05.367Z,99756.66
2023-04-12T04:35:09.937Z,99757.19
2023-04-12T04:36:12.704Z,99756.66
2023-04-12T04:37:17.408Z,99758.88
2023-04-12T04:38:20.209Z,99751.72
2023-04-12T04:39:23.037Z,99753.38
2023-04-12T04:40:25.026Z,99746.50
2023-04-12T04:41:27.626Z,99740.06
2023-04-12T04:42:29.704Z,99737.16
2023-04-12T04:43:34.188Z,99737.66
2023-04-12T04:44:36.020Z,99724.06
2023-04-12T04:45:41.328Z,99717.06
2023-04-12T04:46:43.840Z,99724.63
2023-04-12T04:47:45.424Z,99721.13
2023-04-12T04:48:48.499Z,99716.34
2023-04-12T04:49:50.081Z,99710.09
2023-04-12T04:50:54.306Z,99701.31
2023-04-12T04:51:56.001Z,99707.97
2023-04-12T04:52:58.701Z,99700.50
2023-04-12T04:54:00.883Z,99704.56
2023-04-12T04:55:05.749Z,99702.66
2023-04-12T04:56:09.399Z,99701.06
2023-04-12T04:57:11.868Z,99700.25
2023-04-12T04:58:14.199Z,99696.13
2023-04-12T04:59:17.646Z,99702.28
2023-04-12T05:00:20.198Z,99701.72
2023-04-12T05:01:25.800Z,99707.94
2023-04-12T05:02:27.503Z,99703.88
2023-04-12T05:03:30.973Z,99708.09
2023-04-12T05:04:32.780Z,99699.25
2023-04-12T05:05:35.549Z,99696.13
2023-04-12T05:06:38.537Z,99691.31
2023-04-12T05:07:41.500Z,99686.13
2023-04-12T05:08:43.024Z,99689.69
2023-04-12T05:09:45.486Z,99688.41
2023-04-12T05:10:50.938Z,99677.38
2023-04-12T05:11:53.388Z,99682.03
2023-04-12T05:12:54.917Z,99683.84
2023-04-12T05:13:57.412Z,99690.34
2023-04-12T05:15:11.098Z,99677.41
2023-04-12T05:16:14.736Z,99680.66
2023-04-12T05:17:16.498Z,99676.09
2023-04-12T05:18:19.051Z,99678.56
2023-04-12T05:19:20.895Z,99676.56
2023-04-12T05:20:23.364Z,99678.81
2023-04-12T05:21:26.339Z,99674.75
2023-04-12T05:22:29.637Z,99673.44
2023-04-12T05:23:35.998Z,99682.47
2023-04-12T05:24:37.532Z,99666.50
2023-04-12T05:25:46.932Z,99667.34
2023-04-12T05:26:49.383Z,99672.22
2023-04-12T05:27:52.152Z,99669.47
2023-04-12T05:28:55.169Z,99672.75
2023-04-12T05:29:57.113Z,99670.84
2023-04-12T05:30:59.585Z,99670.56
2023-04-12T05:32:01.221Z,99670.84
2023-04-12T05:33:03.824Z,99670.84
2023-04-12T05:34:05.410Z,99675.97
2023-04-12T05:35:08.648Z,99670.03
2023-04-12T05:36:10.838Z,99678.03
2023-04-12T05:37:13.370Z,99675.63
2023-04-12T05:38:16.460Z,99676.72
2023-04-12T05:39:20.734Z,99669.66
2023-04-12T05:40:22.399Z,99660.78
2023-04-12T05:41:24.844Z,99657.19
2023-04-12T05:42:27.066Z,99656.19
2023-04-12T05:43:29.479Z,99656.50
2023-04-12T05:44:31.034Z,99663.00
2023-04-12T05:45:33.502Z,99660.00
2023-04-12T05:46:35.090Z,99654.31
2023-04-12T05:47:37.727Z,99658.91
2023-04-12T05:48:40.262Z,99652.72
2023-04-12T05:49:41.812Z,99665.69
2023-04-12T05:50:51.694Z,99662.41
2023-04-12T05:51:53.189Z,99660.28
2023-04-12T05:52:56.170Z,99651.09
2023-04-12T05:53:59.037Z,99657.03
2023-04-12T05:55:01.494Z,99643.44
2023-04-12T05:56:03.093Z,99642.38
2023-04-12T05:57:05.824Z,99643.72
2023-04-12T05:58:08.936Z,99643.41
2023-04-12T05:59:12.399Z,99641.75
2023-04-12T06:00:17.486Z,99635.81
2023-04-12T06:01:21.254Z,99643.19
2023-04-12T06:02:26.158Z,99629.88
2023-04-12T06:03:30.532Z,99637.94
2023-04-12T06:04:48.768Z,99645.81
2023-04-12T06:05:53.145Z,99638.84
2023-04-12T06:06:56.245Z,99637.78
2023-04-12T06:07:59.989Z,99638.28
2023-04-12T06:09:04.965Z,99629.25
2023-04-12T06:10:10.107Z,99622.94
2023-04-12T06:11:18.179Z,99637.03
2023-04-12T06:12:20.844Z,99638.41
2023-04-12T06:13:23.329Z,99622.13
2023-04-12T06:14:25.746Z,99627.00
2023-04-12T06:15:28.333Z,99627.47
2023-04-12T06:16:30.839Z,99628.06
2023-04-12T06:17:33.518Z,99626.63
2023-04-12T06:18:35.208Z,99629.50
2023-04-12T06:19:37.728Z,99618.75
2023-04-12T06:20:39.936Z,99616.84
2023-04-12T06:21:42.531Z,99607.72
2023-04-12T06:22:44.110Z,99606.59
2023-04-12T06:23:46.617Z,99605.69
2023-04-12T06:24:50.784Z,99613.28
2023-04-12T06:25:53.359Z,99602.06
2023-04-12T06:26:57.585Z,99599.41
2023-04-12T06:27:59.291Z,99601.22
2023-04-12T06:29:02.480Z,99579.88
2023-04-12T06:30:05.070Z,99587.91
2023-04-12T06:31:11.579Z,99599.28
2023-04-12T06:32:13.774Z,99590.00
2023-04-12T06:33:16.929Z,99597.69
2023-04-12T06:34:18.543Z,99608.84
2023-04-12T06:35:21.671Z,99614.72
2023-04-12T06:36:23.181Z,99617.78
2023-04-12T06:37:25.693Z,99600.09
2023-04-12T06:38:27.488Z,99599.81
2023-04-12T06:39:30.477Z,99591.66
2023-04-12T06:40:34.357Z,99596.84
2023-04-12T06:41:35.848Z,99594.91
2023-04-12T06:42:38.307Z,99592.13
2023-04-12T06:43:39.965Z,99594.56
2023-04-12T06:44:42.489Z,99589.72
2023-04-12T06:45:44.311Z,99589.63
2023-04-12T06:46:47.012Z,99587.38
2023-04-12T06:47:49.028Z,99580.19
2023-04-12T06:48:51.582Z,99566.78
2023-04-12T06:49:56.298Z,99573.59
2023-04-12T06:50:59.284Z,99581.94
2023-04-12T06:52:01.788Z,99571.72
2023-04-12T06:53:05.053Z,99575.63
2023-04-12T06:54:07.894Z,99564.25
2023-04-12T06:55:09.849Z,99561.28
2023-04-12T06:56:14.549Z,99557.50
2023-04-12T06:57:17.653Z,99553.75
2023-04-12T06:58:20.308Z,99559.44
2023-04-12T06:59:21.986Z,99544.41
2023-04-12T07:00:25.381Z,99543.81
2023-04-12T07:01:27.197Z,99544.13
2023-04-12T07:02:29.777Z,99546.72
2023-04-12T07:03:33.306Z,99533.16
2023-04-12T07:04:36.088Z,99541.59
2023-04-12T07:05:38.042Z,99533.97
2023-04-12T07:06:40.607Z,99534.66
2023-04-12T07:07:42.144Z,99537.25
2023-04-12T07:08:45.167Z,99526.91
2023-04-12T07:09:48.765Z,99523.16
2023-04-12T07:10:53.593Z,99522.63
2023-04-12T07:11:57.342Z,99519.84
2023-04-12T07:13:03.472Z,99517.75
2023-04-12T07:14:06.163Z,99519.75
2023-04-12T07:15:08.854Z,99515.88
2023-04-12T07:16:11.362Z,99513.66
2023-04-12T07:17:12.905Z,99514.00
2023-04-12T07:18:15.464Z,99516.94
2023-04-12T07:19:17.267Z,99510.19
2023-04-12T07:20:19.734Z,99508.88
2023-04-12T07:21:21.329Z,99513.06
2023-04-12T07:22:24.501Z,99495.81
2023-04-12T07:23:27.082Z,99509.06
2023-04-12T07:24:28.574Z,99509.22
2023-04-12T07:25:31.011Z,99515.16
2023-04-12T07:26:32.559Z,99510.09
2023-04-12T07:27:36.550Z,99507.03
2023-04-12T07:28:39.079Z,99504.47
2023-04-12T07:29:41.528Z,99503.34
2023-04-12T07:30:43.078Z,99505.81
2023-04-12T07:31:46.017Z,99509.13
2023-04-12T07:32:47.630Z,99503.28
2023-04-12T07:33:50.576Z,99504.97
2023-04-12T07:34:53.208Z,99495.97
2023-04-12T07:35:56.103Z,99498.56
2023-04-12T07:37:01.076Z,99497.44
2023-04-12T07:38:04.154Z,99496.13
2023-04-12T07:39:05.910Z,99496.53
2023-04-12T07:40:09.305Z,99502.28
2023-04-12T07:41:11.022Z,99502.59
2023-04-12T07:42:15.567Z,99487.84
2023-04-12T07:43:18.470Z,99496.53
2023-04-12T07:44:20.982Z,99489.47
2023-04-12T07:45:25.482Z,99483.13
2023-04-12T07:46:28.135Z,99493.47
2023-04-12T07:47:30.566Z,99490.66
2023-04-12T07:48:33.183Z,99484.84
2023-04-12T07:49:35.746Z,99480.88
2023-04-12T07:50:38.746Z,99485.88
2023-04-12T07:51:42.263Z,99482.03
2023-04-12T07:52:44.751Z,99479.94
2023-04-12T07:53:48.460Z,99478.97
2023-04-12T07:54:50.989Z,99473.94
2023-04-12T07:55:53.683Z,99475.84
2023-04-12T07:57:00.679Z,99472.50
2023-04-12T07:58:04.186Z,99472.63
2023-04-12T07:59:08.296Z,99465.06
2023-04-12T08:00:11.659Z,99467.16
2023-04-12T08:01:25.186Z,99464.19
2023-04-12T08:02:27.043Z,99461.38
2023-04-12T08:03:29.709Z,99459.81
2023-04-12T08:04:31.766Z,99453.59
2023-04-12T08:05:34.284Z,99450.69
2023-04-12T08:06:35.867Z,99461.06
2023-04-12T08:07:38.335Z,99453.38
2023-04-12T08:08:39.906Z,99453.00
2023-04-12T08:09:42.374Z,99447.53
2023-04-12T08:10:43.954Z,99459.72
2023-04-12T08:11:47.307Z,99442.00
2023-04-12T08:12:49.913Z,99443.41
2023-04-12T08:13:52.452Z,99443.22
2023-04-12T08:14:56.303Z,99445.06
2023-04-12T08:15:58.916Z,99446.94
2023-04-12T08:17:01.497Z,99450.78
2023-04-12T08:18:03.358Z,99450.38
2023-04-12T08:19:05.948Z,99456.03
2023-04-12T08:20:09.177Z,99442.94
2023-04-12T08:21:10.812Z,99439.16
2023-04-12T08:22:13.768Z,99450.53
2023-04-12T08:23:16.836Z,99438.03
2023-04-12T08:24:19.833Z,99428.66
2023-04-12T08:25:22.537Z,99440.63
2023-04-12T08:26:24.188Z,99442.97
2023-04-12T08:27:27.023Z,99432.91
2023-04-12T08:28:29.508Z,99430.72
2023-04-12T08:29:31.116Z,99426.41
2023-04-12T08:30:35.323Z,99430.72
2023-04-12T08:31:37.852Z,99435.50
2023-04-12T08:32:41.534Z,99424.75
2023-04-12T08:33:44.119Z,99421.38
2023-04-12T08:34:46.161Z,99429.94
2023-04-12T08:35:49.558Z,99408.31
2023-04-12T08:36:52.054Z,99407.81
2023-04-12T08:37:53.737Z,99429.16
2023-04-12T08:39:00.199Z,99410.25
2023-04-12T08:40:08.542Z,99408.44
2023-04-12T08:41:10.867Z,99393.88
2023-04-12T08:42:16.220Z,99409.88
2023-04-12T08:43:20.377Z,99415.94
2023-04-12T08:44:33.408Z,99406.81
2023-04-12T08:45:38.712Z,99414.97
2023-04-12T08:46:42.268Z,99390.59
2023-04-12T08:47:45.147Z,99413.84
2023-04-12T08:48:49.729Z,99396.69
2023-04-12T08:49:51.317Z,99403.63
2023-04-12T08:50:57.033Z,99392.22
2023-04-12T08:52:00.658Z,99407.84
2023-04-12T08:53:04.161Z,99409.94
2023-04-12T08:54:06.951Z,99401.56
2023-04-12T08:55:12.913Z,99395.28
2023-04-12T08:56:17.548Z,99392.38
2023-04-12T08:57:19.477Z,99389.81
2023-04-12T08:58:23.089Z,99384.16
2023-04-12T08:59:25.856Z,99391.84
2023-04-12T09:00:28.705Z,99378.50
2023-04-12T09:01:32.615Z,99392.50
2023-04-12T09:02:35.958Z,99388.75
2023-04-12T09:03:39.089Z,99372.91
2023-04-12T09:04:49.513Z,99387.75
2023-04-12T09:05:52.027Z,99383.44
2023-04-12T09:06:53.769Z,99374.94
2023-04-12T09:07:56.263Z,99369.31
2023-04-12T09:09:00.317Z,99377.34
2023-04-12T09:10:02.074Z,99367.56
2023-04-12T09:11:23.129Z,99373.47
2023-04-12T09:12:25.843Z,99377.06
2023-04-12T09:13:34.567Z,99365.94
2023-04-12T09:14:37.552Z,99351.63
2023-04-12T09:15:50.062Z,99359.03
2023-04-12T09:16:52.966Z,99348.56
2023-04-12T09:18:07.354Z,99362.22
2023-04-12T09:19:10.418Z,99356.75
2023-04-12T09:20:24.971Z,99355.81
2023-04-12T09:21:28.017Z,99346.13
2023-04-12T09:22:40.274Z,99342.75
2023-04-12T09:23:41.887Z,99338.09
2023-04-12T09:24:48.699Z,99338.91
2023-04-12T09:25:53.265Z,99333.94
2023-04-12T09:27:03.068Z,99332.63
2023-04-12T09:28:18.270Z,99335.34
2023-04-12T09:29:25.099Z,99358.53
2023-04-12T09:30:26.715Z,99336.00
2023-04-12T09:31:29.438Z,99324.06
2023-04-12T09:32:32.408Z,99330.22
2023-04-12T09:33:36.962Z,99308.81
2023-04-12T09:34:38.994Z,99317.81
2023-04-12T09:35:42.955Z,99319.41
2023-04-12T09:36:45.609Z,99312.63
2023-04-12T09:37:57.327Z,99314.88
2023-04-12T09:39:02.236Z,99311.97
2023-04-12T09:40:05.411Z,99317.94
2023-04-12T09:41:22.294Z,99302.13
2023-04-12T09:42:33.364Z,99310.22
2023-04-12T09:43:37.341Z,99301.03
2023-04-12T09:44:40.584Z,99290.63
2023-04-12T09:45:43.221Z,99299.59
2023-04-12T09:46:51.857Z,99306.25
2023-04-12T09:47:56.488Z,99287.16
2023-04-12T09:49:00.224Z,99296.16
2023-04-12T09:50:04.578Z,99274.28
2023-04-12T09:51:07.297Z,99266.63
2023-04-12T09:52:11.069Z,99279.00
2023-04-12T09:53:18.223Z,99290.44
2023-04-12T09:54:20.032Z,99276.53
2023-04-12T09:55:26.333Z,99287.53
2023-04-12T09:56:30.743Z,99286.72
2023-04-12T09:57:34.417Z,99288.28
2023-04-12T09:58:36.885Z,99294.25
2023-04-12T09:59:41.334Z,99306.53
2023-04-12T10:00:44.472Z,99306.03
2023-04-12T10:01:47.049Z,99284.97
2023-04-12T10:02:52.088Z,99276.56
2023-04-12T10:03:56.303Z,99286.56
2023-04-12T10:04:59.726Z,99280.44
2023-04-12T10:06:04.652Z,99259.22
2023-04-12T10:07:06.836Z,99245.63
2023-04-12T10:08:09.553Z,99263.44
2023-04-12T10:09:13.103Z,99264.03
2023-04-12T10:10:27.808Z,99243.09
2023-04-12T10:11:44.501Z,99262.41
2023-04-12T10:13:04.917Z,99259.38
2023-04-12T10:14:34.327Z,99259.50
2023-04-12T10:15:41.213Z,99245.88
2023-04-12T10:17:01.511Z,99261.16
2023-04-12T10:18:08.332Z,99230.28
2023-04-12T10:19:18.703Z,99221.91
2023-04-12T10:20:26.185Z,99242.34
2023-04-12T10:21:30.661Z,99238.31
2023-04-12T10:22:35.187Z,99232.69
2023-04-12T10:23:37.794Z,99242.50
2023-04-12T10:24:40.640Z,99242.50
2023-04-12T10:25:46.531Z,99249.13
2023-04-12T10:26:50.251Z,99249.25
2023-04-12T10:27:52.931Z,99231.06
2023-04-12T10:29:26.867Z,99242.34
2023-04-12T10:30:30.555Z,99235.91
2023-04-12T10:31:34.220Z,99239.44
2023-04-12T10:32:36.446Z,99232.19
2023-04-12T10:33:40.373Z,99213.72
2023-04-12T10:34:43.563Z,99217.41
2023-04-12T10:35:52.046Z,99221.25
2023-04-12T10:36:56.080Z,99221.44
2023-04-12T10:37:58.916Z,99202.44
2023-04-12T10:39:10.444Z,99215.47
2023-04-12T10:40:17.309Z,99220.47
2023-04-12T10:41:21.455Z,99211.28
2023-04-12T10:42:26.829Z,99211.78
2023-04-12T10:43:30.034Z,99209.34
2023-04-12T10:44:31.781Z,99208.22
2023-04-12T10:45:38.725Z,99210.16
2023-04-12T10:46:53.723Z,99204.53
2023-04-12T10:48:03.567Z,99213.06
2023-04-12T10:49:10.134Z,99221.44
2023-04-12T10:50:25.529Z,99212.09
2023-04-12T10:51:28.521Z,99196.16
2023-04-12T10:52:30.286Z,99215.31
2023-04-12T10:53:32.721Z,99225.75
2023-04-12T10:54:35.666Z,99197.31
2023-04-12T10:55:38.670Z,99198.13
2023-04-12T10:56:42.592Z,99203.56
2023-04-12T10:57:45.336Z,99195.38
2023-04-12T10:59:00.464Z,99180.91
2023-04-12T11:00:03.702Z,99200.66
2023-04-12T11:01:11.841Z,99175.94
2023-04-12T11:02:15.817Z,99168.50
2023-04-12T11:03:18.126Z,99193.44
2023-04-12T11:04:23.011Z,99177.53
2023-04-12T11:05:26.232Z,99181.69
2023-04-12T11:06:47.981Z,99171.88
2023-04-12T11:07:54.693Z,99188.28
2023-04-12T11:08:57.139Z,99168.22
2023-04-12T11:10:01.758Z,99177.53
2023-04-12T11:11:05.736Z,99170.91
2023-04-12T11:12:15.321Z,99168.69
2023-04-12T11:13:17.084Z,99171.41
2023-04-12T11:14:28.333Z,99160.81
2023-04-12T11:15:33.310Z,99160.81
2023-04-12T11:16:35.835Z,99153.22
2023-04-12T11:17:38.502Z,99159.81
2023-04-12T11:18:40.463Z,99164.16
2023-04-12T11:19:45.684Z,99159.84
2023-04-12T11:20:51.546Z,99155.81
2023-04-12T11:21:53.837Z,99169.78
2023-04-12T11:22:56.845Z,99149.53
2023-04-12T11:23:58.927Z,99156.16
2023-04-12T11:25:03.042Z,99157.25
2023-04-12T11:26:06.154Z,99149.53
2023-04-12T11:27:09.688Z,99155.00
2023-04-12T11:28:27.935Z,99158.84
2023-04-12T11:29:32.614Z,99161.75
2023-04-12T11:30:35.165Z,99158.69
2023-04-12T11:31:38.591Z,99154.19
2023-04-12T11:32:42.172Z,99150.03
2023-04-12T11:33:45.383Z,99155.81
2023-04-12T11:34:50.572Z,99153.41
2023-04-12T11:35:55.204Z,99151.25
2023-04-12T11:37:04.395Z,99147.72
2023-04-12T11:38:08.312Z,99147.75
2023-04-12T11:39:10.848Z,99144.72
2023-04-12T11:40:17.668Z,99149.53
2023-04-12T11:41:19.687Z,99156.13
2023-04-12T11:42:24.701Z,99157.41
2023-04-12T11:43:26.937Z,99128.94
2023-04-12T11:44:37.902Z,99156.78
2023-04-12T11:45:56.395Z,99154.44
2023-04-12T11:46:59.214Z,99125.75
2023-04-12T11:48:02.017Z,99152.50
2023-04-12T11:49:03.986Z,99139.28
2023-04-12T11:50:08.248Z,99152.09
2023-04-12T11:51:30.795Z,99153.53
2023-04-12T11:52:36.183Z,99135.22
2023-04-12T11:53:37.928Z,99158.75
2023-04-12T11:54:43.811Z,99130.56
2023-04-12T11:55:49.373Z,99127.31
2023-04-12T11:56:51.237Z,99152.41
2023-04-12T11:57:56.035Z,99131.22
2023-04-12T11:58:57.646Z,99111.88
2023-04-12T12:00:00.810Z,99116.34
2023-04-12T12:01:04.006Z,99148.19
2023-04-12T12:02:21.231Z,99128.81
2023-04-12T12:03:26.076Z,99137.75
2023-04-12T12:04:29.099Z,99143.47
2023-04-12T12:05:36.682Z,99130.34
2023-04-12T12:06:40.489Z,99121.75
2023-04-12T12:07:43.337Z,99141.28
2023-04-12T12:08:44.961Z,99129.94
2023-04-12T12:09:47.802Z,99128.34
2023-04-12T12:11:06.339Z,99132.84
2023-04-12T12:12:11.525Z,99133.47
2023-04-12T12:13:14.200Z,99121.00
2023-04-12T12:14:19.878Z,99122.81
2023-04-12T12:15:22.566Z,99118.50
2023-04-12T12:16:25.747Z,99120.84
2023-04-12T12:17:28.803Z,99121.41
2023-04-12T12:18:30.626Z,99126.81
2023-04-12T12:19:39.987Z,99114.72
2023-04-12T12:20:42.522Z,99120.31
2023-04-12T12:21:47.163Z,99131.34
2023-04-12T12:22:49.140Z,99122.41
2023-04-12T12:23:51.776Z,99119.63
2023-04-12T12:24:56.852Z,99121.41
2023-04-12T12:26:10.588Z,99116.06
2023-04-12T12:27:22.960Z,99117.28
2023-04-12T12:28:24.568Z,99105.44
2023-04-12T12:29:27.249Z,99107.53
2023-04-12T12:30:30.687Z,99103.09